sensor_id;sensor_type;location;lat;lon;timestamp;pressure;altitude;pressure_sealevel;temperature;humidity
70909;BME280;58554;52.006;5.926;2023-06-05T00:00:46;101486.09;;;16.22;48.35
70909;BME280;58554;52.006;5.926;2023-06-05T00:03:13;101485.25;;;16.21;48.15
70909;BME280;58554;52.006;5.926;2023-06-05T00:05:39;101488.75;;;16.22;48.45
70909;BME280;58554;52.006;5.926;2023-06-05T00:08:09;101492.38;;;16.20;48.42
70909;BME280;58554;52.006;5.926;2023-06-05T00:10:35;101491.53;;;16.20;48.42
70909;BME280;58554;52.006;5.926;2023-06-05T00:13:02;101492.38;;;16.20;48.29
70909;BME280;58554;52.006;5.926;2023-06-05T00:15:28;101491.53;;;16.20;48.74
70909;BME280;58554;52.006;5.926;2023-06-05T00:17:55;101489.94;;;16.17;48.64
70909;BME280;58554;52.006;5.926;2023-06-05T00:20:21;101490.25;;;16.13;48.68
70909;BME280;58554;52.006;5.926;2023-06-05T00:22:48;101488.78;;;16.09;48.57
70909;BME280;58554;52.006;5.926;2023-06-05T00:25:17;101487.28;;;16.05;48.88
70909;BME280;58554;52.006;5.926;2023-06-05T00:27:43;101484.69;;;16.03;48.88
70909;BME280;58554;52.006;5.926;2023-06-05T00:30:11;101483.94;;;16.01;48.79
70909;BME280;58554;52.006;5.926;2023-06-05T00:32:38;101488.75;;;15.96;48.87
70909;BME280;58554;52.006;5.926;2023-06-05T00:35:07;101487.25;;;15.92;49.10
70909;BME280;58554;52.006;5.926;2023-06-05T00:37:34;101484.78;;;15.89;49.13
70909;BME280;58554;52.006;5.926;2023-06-05T00:40:01;101485.53;;;15.91;49.09
70909;BME280;58554;52.006;5.926;2023-06-05T00:42:30;101480.22;;;15.91;49.14
70909;BME280;58554;52.006;5.926;2023-06-05T00:44:56;101483.72;;;15.91;49.26
70909;BME280;58554;52.006;5.926;2023-06-05T00:47:23;101481.28;;;15.88;49.25
70909;BME280;58554;52.006;5.926;2023-06-05T00:49:50;101477.41;;;15.79;49.37
70909;BME280;58554;52.006;5.926;2023-06-05T00:52:17;101480.66;;;15.70;49.29
70909;BME280;58554;52.006;5.926;2023-06-05T00:54:44;101482.06;;;15.63;49.50
70909;BME280;58554;52.006;5.926;2023-06-05T00:57:10;101486.94;;;15.56;49.85
70909;BME280;58554;52.006;5.926;2023-06-05T00:59:40;101485.63;;;15.49;49.78
70909;BME280;58554;52.006;5.926;2023-06-05T01:02:07;101478.13;;;15.42;50.00
70909;BME280;58554;52.006;5.926;2023-06-05T01:04:33;101477.41;;;15.39;50.00
70909;BME280;58554;52.006;5.926;2023-06-05T01:07:00;101487.31;;;15.37;50.10
70909;BME280;58554;52.006;5.926;2023-06-05T01:09:27;101480.28;;;15.36;50.36
70909;BME280;58554;52.006;5.926;2023-06-05T01:11:59;101490.09;;;15.36;50.39
70909;BME280;58554;52.006;5.926;2023-06-05T01:14:31;101488.66;;;15.30;50.23
70909;BME280;58554;52.006;5.926;2023-06-05T01:17:04;101481.81;;;15.26;50.21
70909;BME280;58554;52.006;5.926;2023-06-05T01:19:34;101467.09;;;15.21;50.35
70909;BME280;58554;52.006;5.926;2023-06-05T01:22:01;101483.06;;;15.21;50.61
70909;BME280;58554;52.006;5.926;2023-06-05T01:24:31;101474.31;;;15.18;50.51
70909;BME280;58554;52.006;5.926;2023-06-05T01:27:12;101468.25;;;15.16;51.24
70909;BME280;58554;52.006;5.926;2023-06-05T01:29:48;101471.97;;;15.14;50.94
70909;BME280;58554;52.006;5.926;2023-06-05T01:32:23;101471.44;;;15.09;50.67
70909;BME280;58554;52.006;5.926;2023-06-05T01:34:58;101470.78;;;15.05;50.84
70909;BME280;58554;52.006;5.926;2023-06-05T01:37:25;101462.25;;;15.00;51.08
70909;BME280;58554;52.006;5.926;2023-06-05T01:39:57;101459.00;;;14.95;51.06
70909;BME280;58554;52.006;5.926;2023-06-05T01:42:26;101460.91;;;14.93;51.18
70909;BME280;58554;52.006;5.926;2023-06-05T01:44:54;101455.59;;;14.93;51.17
70909;BME280;58554;52.006;5.926;2023-06-05T01:47:20;101449.59;;;14.89;51.33
70909;BME280;58554;52.006;5.926;2023-06-05T01:49:47;101453.31;;;14.87;51.48
70909;BME280;58554;52.006;5.926;2023-06-05T01:52:14;101449.91;;;14.85;51.53
70909;BME280;58554;52.006;5.926;2023-06-05T01:54:41;101453.41;;;14.85;51.38
70909;BME280;58554;52.006;5.926;2023-06-05T01:57:10;101450.00;;;14.83;51.55
70909;BME280;58554;52.006;5.926;2023-06-05T01:59:36;101441.38;;;14.80;51.39
70909;BME280;58554;52.006;5.926;2023-06-05T02:02:03;101444.97;;;14.78;51.42
70909;BME280;58554;52.006;5.926;2023-06-05T02:04:29;101451.34;;;14.76;51.74
70909;BME280;58554;52.006;5.926;2023-06-05T02:06:56;101447.00;;;14.75;51.78
70909;BME280;58554;52.006;5.926;2023-06-05T02:09:23;101449.66;;;14.75;51.80
70909;BME280;58554;52.006;5.926;2023-06-05T02:11:49;101448.91;;;14.73;51.83
70909;BME280;58554;52.006;5.926;2023-06-05T02:14:18;101443.56;;;14.73;51.97
70909;BME280;58554;52.006;5.926;2023-06-05T02:16:45;101452.66;;;14.69;51.73
70909;BME280;58554;52.006;5.926;2023-06-05T02:19:11;101450.09;;;14.67;51.76
70909;BME280;58554;52.006;5.926;2023-06-05T02:21:38;101446.47;;;14.68;51.91
70909;BME280;58554;52.006;5.926;2023-06-05T02:24:05;101449.25;;;14.67;51.93
70909;BME280;58554;52.006;5.926;2023-06-05T02:26:31;101449.13;;;14.68;51.80
70909;BME280;58554;52.006;5.926;2023-06-05T02:28:58;101447.53;;;14.66;51.99
70909;BME280;58554;52.006;5.926;2023-06-05T02:31:28;101453.81;;;14.65;51.93
70909;BME280;58554;52.006;5.926;2023-06-05T02:33:55;101446.69;;;14.65;52.12
70909;BME280;58554;52.006;5.926;2023-06-05T02:36:22;101445.84;;;14.65;51.84
70909;BME280;58554;52.006;5.926;2023-06-05T02:38:49;101437.09;;;14.63;52.07
70909;BME280;58554;52.006;5.926;2023-06-05T02:41:16;101442.41;;;14.63;52.20
70909;BME280;58554;52.006;5.926;2023-06-05T02:43:43;101442.50;;;14.61;52.20
70909;BME280;58554;52.006;5.926;2023-06-05T02:46:10;101442.69;;;14.58;52.26
70909;BME280;58554;52.006;5.926;2023-06-05T02:48:39;101440.22;;;14.55;52.43
70909;BME280;58554;52.006;5.926;2023-06-05T02:51:05;101438.50;;;14.54;52.31
70909;BME280;58554;52.006;5.926;2023-06-05T02:53:32;101434.25;;;14.51;52.42
70909;BME280;58554;52.006;5.926;2023-06-05T02:55:59;101429.97;;;14.49;52.48
70909;BME280;58554;52.006;5.926;2023-06-05T02:58:25;101427.69;;;14.43;52.24
70909;BME280;58554;52.006;5.926;2023-06-05T03:00:51;101426.25;;;14.37;52.64
70909;BME280;58554;52.006;5.926;2023-06-05T03:03:18;101426.38;;;14.35;52.57
70909;BME280;58554;52.006;5.926;2023-06-05T03:05:47;101425.72;;;14.32;52.64
70909;BME280;58554;52.006;5.926;2023-06-05T03:08:14;101429.31;;;14.31;52.81
70909;BME280;58554;52.006;5.926;2023-06-05T03:10:40;101426.78;;;14.29;52.76
70909;BME280;58554;52.006;5.926;2023-06-05T03:13:07;101420.69;;;14.27;52.88
70909;BME280;58554;52.006;5.926;2023-06-05T03:15:33;101420.00;;;14.24;53.03
70909;BME280;58554;52.006;5.926;2023-06-05T03:18:00;101428.00;;;14.24;52.96
70909;BME280;58554;52.006;5.926;2023-06-05T03:20:27;101424.56;;;14.22;52.83
70909;BME280;58554;52.006;5.926;2023-06-05T03:22:56;101420.41;;;14.17;52.86
70909;BME280;58554;52.006;5.926;2023-06-05T03:25:23;101418.03;;;14.13;53.05
70909;BME280;58554;52.006;5.926;2023-06-05T03:27:49;101417.56;;;14.06;53.01
70909;BME280;58554;52.006;5.926;2023-06-05T03:30:16;101415.66;;;13.94;53.00
70909;BME280;58554;52.006;5.926;2023-06-05T03:32:42;101412.69;;;13.84;53.33
70909;BME280;58554;52.006;5.926;2023-06-05T03:35:09;101415.81;;;13.76;53.23
70909;BME280;58554;52.006;5.926;2023-06-05T03:37:35;101420.72;;;13.68;53.32
70909;BME280;58554;52.006;5.926;2023-06-05T03:40:06;101414.25;;;13.58;53.30
70909;BME280;58554;52.006;5.926;2023-06-05T03:42:34;101417.59;;;13.46;53.66
70909;BME280;58554;52.006;5.926;2023-06-05T03:45:00;101404.28;;;13.31;53.76
70909;BME280;58554;52.006;5.926;2023-06-05T03:47:27;101414.75;;;13.18;53.70
70909;BME280;58554;52.006;5.926;2023-06-05T03:49:53;101409.22;;;13.07;54.20
70909;BME280;58554;52.006;5.926;2023-06-05T03:52:20;101416.97;;;12.96;54.14
70909;BME280;58554;52.006;5.926;2023-06-05T03:54:47;101411.38;;;12.85;54.53
70909;BME280;58554;52.006;5.926;2023-06-05T03:57:16;101407.47;;;12.76;54.59
70909;BME280;58554;52.006;5.926;2023-06-05T03:59:42;101410.53;;;12.68;54.93
70909;BME280;58554;52.006;5.926;2023-06-05T04:02:09;101407.44;;;12.60;54.91
70909;BME280;58554;52.006;5.926;2023-06-05T04:04:35;101417.53;;;12.53;55.18
70909;BME280;58554;52.006;5.926;2023-06-05T04:07:02;101416.97;;;12.48;55.37
70909;BME280;58554;52.006;5.926;2023-06-05T04:09:28;101412.00;;;12.42;55.35
70909;BME280;58554;52.006;5.926;2023-06-05T04:11:55;101424.63;;;12.37;55.53
70909;BME280;58554;52.006;5.926;2023-06-05T04:14:24;101428.50;;;12.31;55.59
70909;BME280;58554;52.006;5.926;2023-06-05T04:16:51;101416.38;;;12.26;55.72
70909;BME280;58554;52.006;5.926;2023-06-05T04:19:17;101415.09;;;12.17;56.04
70909;BME280;58554;52.006;5.926;2023-06-05T04:21:45;101420.53;;;12.14;56.04
70909;BME280;58554;52.006;5.926;2023-06-05T04:24:11;101421.50;;;12.13;56.01
70909;BME280;58554;52.006;5.926;2023-06-05T04:26:39;101424.22;;;12.11;56.35
70909;BME280;58554;52.006;5.926;2023-06-05T04:29:07;101425.38;;;12.06;56.36
70909;BME280;58554;52.006;5.926;2023-06-05T04:31:36;101427.19;;;12.05;56.36
70909;BME280;58554;52.006;5.926;2023-06-05T04:34:02;101429.91;;;12.04;56.60
70909;BME280;58554;52.006;5.926;2023-06-05T04:36:29;101427.25;;;12.04;56.70
70909;BME280;58554;52.006;5.926;2023-06-05T04:38:56;101425.56;;;12.03;57.03
70909;BME280;58554;52.006;5.926;2023-06-05T04:41:22;101434.44;;;12.02;56.83
70909;BME280;58554;52.006;5.926;2023-06-05T04:43:49;101442.31;;;12.03;56.92
70909;BME280;58554;52.006;5.926;2023-06-05T04:46:15;101436.16;;;12.03;56.87
70909;BME280;58554;52.006;5.926;2023-06-05T04:48:44;101437.00;;;12.03;56.70
70909;BME280;58554;52.006;5.926;2023-06-05T04:51:11;101436.16;;;12.03;57.06
70909;BME280;58554;52.006;5.926;2023-06-05T04:53:38;101428.22;;;12.03;57.17
70909;BME280;58554;52.006;5.926;2023-06-05T04:56:04;101437.97;;;12.02;57.14
70909;BME280;58554;52.006;5.926;2023-06-05T04:58:31;101441.53;;;12.01;57.31
70909;BME280;58554;52.006;5.926;2023-06-05T05:00:57;101438.97;;;12.00;57.45
70909;BME280;58554;52.006;5.926;2023-06-05T05:03:24;101437.09;;;12.02;57.50
70909;BME280;58554;52.006;5.926;2023-06-05T05:05:53;101426.59;;;12.00;57.16
70909;BME280;58554;52.006;5.926;2023-06-05T05:08:20;101438.81;;;12.03;57.76
70909;BME280;58554;52.006;5.926;2023-06-05T05:10:46;101440.50;;;12.04;57.46
70909;BME280;58554;52.006;5.926;2023-06-05T05:13:13;101428.81;;;12.08;57.74
70909;BME280;58554;52.006;5.926;2023-06-05T05:15:39;101437.00;;;12.03;57.48
70909;BME280;58554;52.006;5.926;2023-06-05T05:18:06;101439.75;;;12.02;57.80
70909;BME280;58554;52.006;5.926;2023-06-05T05:20:32;101438.97;;;12.00;57.91
70909;BME280;58554;52.006;5.926;2023-06-05T05:23:02;101438.97;;;12.00;57.77
70909;BME280;58554;52.006;5.926;2023-06-05T05:25:28;101434.53;;;12.00;57.76
70909;BME280;58554;52.006;5.926;2023-06-05T05:27:55;101448.56;;;12.02;58.08
70909;BME280;58554;52.006;5.926;2023-06-05T05:30:21;101447.53;;;12.05;58.10
70909;BME280;58554;52.006;5.926;2023-06-05T05:32:48;101445.03;;;12.02;58.02
70909;BME280;58554;52.006;5.926;2023-06-05T05:35:14;101447.63;;;12.03;58.10
70909;BME280;58554;52.006;5.926;2023-06-05T05:37:41;101446.59;;;12.06;58.23
70909;BME280;58554;52.006;5.926;2023-06-05T05:40:11;101445.41;;;12.11;58.35
70909;BME280;58554;52.006;5.926;2023-06-05T05:42:38;101451.56;;;12.12;58.40
70909;BME280;58554;52.006;5.926;2023-06-05T05:45:07;101448.06;;;12.11;58.38
70909;BME280;58554;52.006;5.926;2023-06-05T05:47:34;101450.47;;;12.16;58.35
70909;BME280;58554;52.006;5.926;2023-06-05T05:50:01;101452.03;;;12.20;58.37
70909;BME280;58554;52.006;5.926;2023-06-05T05:52:27;101453.75;;;12.21;58.23
70909;BME280;58554;52.006;5.926;2023-06-05T05:54:54;101446.41;;;12.26;58.34
70909;BME280;58554;52.006;5.926;2023-06-05T05:57:23;101445.78;;;12.39;58.17
70909;BME280;58554;52.006;5.926;2023-06-05T05:59:49;101449.97;;;12.43;57.90
70909;BME280;58554;52.006;5.926;2023-06-05T06:02:16;101437.41;;;12.46;58.46
70909;BME280;58554;52.006;5.926;2023-06-05T06:04:43;101453.00;;;12.52;58.68
70909;BME280;58554;52.006;5.926;2023-06-05T06:07:10;101445.69;;;12.56;58.22
70909;BME280;58554;52.006;5.926;2023-06-05T06:09:37;101446.13;;;12.64;58.12
70909;BME280;58554;52.006;5.926;2023-06-05T06:12:05;101457.03;;;12.75;58.05
70909;BME280;58554;52.006;5.926;2023-06-05T06:14:34;101448.28;;;12.89;57.79
70909;BME280;58554;52.006;5.926;2023-06-05T06:17:01;101450.84;;;13.07;57.96
70909;BME280;58554;52.006;5.926;2023-06-05T06:19:28;101454.34;;;13.23;57.53
70909;BME280;58554;52.006;5.926;2023-06-05T06:21:55;101450.03;;;13.36;57.32
70909;BME280;58554;52.006;5.926;2023-06-05T06:24:22;101459.94;;;13.49;57.15
70909;BME280;58554;52.006;5.926;2023-06-05T06:26:49;101452.97;;;13.62;56.95
70909;BME280;58554;52.006;5.926;2023-06-05T06:29:18;101457.41;;;13.77;56.91
70909;BME280;58554;52.006;5.926;2023-06-05T06:31:50;101458.19;;;13.94;56.51
70909;BME280;58554;52.006;5.926;2023-06-05T06:34:17;101456.69;;;14.04;56.15
70909;BME280;58554;52.006;5.926;2023-06-05T06:36:44;101456.78;;;14.17;56.12
70909;BME280;58554;52.006;5.926;2023-06-05T06:39:10;101453.38;;;14.29;56.11
70909;BME280;58554;52.006;5.926;2023-06-05T06:41:37;101459.84;;;14.40;55.88
70909;BME280;58554;52.006;5.926;2023-06-05T06:44:04;101456.38;;;14.52;55.42
70909;BME280;58554;52.006;5.926;2023-06-05T06:46:32;101455.59;;;14.64;55.63
70909;BME280;58554;52.006;5.926;2023-06-05T06:49:01;101448.91;;;14.73;55.20
70909;BME280;58554;52.006;5.926;2023-06-05T06:51:27;101457.97;;;14.83;55.15
70909;BME280;58554;52.006;5.926;2023-06-05T06:53:54;101453.59;;;14.96;55.17
70909;BME280;58554;52.006;5.926;2023-06-05T06:56:20;101459.28;;;15.05;54.66
70909;BME280;58554;52.006;5.926;2023-06-05T06:58:47;101459.81;;;15.10;54.52
70909;BME280;58554;52.006;5.926;2023-06-05T07:01:14;101459.97;;;15.21;54.85
70909;BME280;58554;52.006;5.926;2023-06-05T07:03:41;101453.94;;;15.32;54.22
70909;BME280;58554;52.006;5.926;2023-06-05T07:06:11;101455.78;;;15.44;54.34
70909;BME280;58554;52.006;5.926;2023-06-05T07:08:38;101464.97;;;15.53;54.04
70909;BME280;58554;52.006;5.926;2023-06-05T07:11:04;101462.84;;;15.58;53.88
70909;BME280;58554;52.006;5.926;2023-06-05T07:13:31;101464.25;;;15.64;53.58
70909;BME280;58554;52.006;5.926;2023-06-05T07:15:58;101456.25;;;15.76;53.56
70909;BME280;58554;52.006;5.926;2023-06-05T07:18:24;101466.22;;;15.87;53.28
70909;BME280;58554;52.006;5.926;2023-06-05T07:20:51;101469.22;;;15.95;53.00
70909;BME280;58554;52.006;5.926;2023-06-05T07:23:20;101464.00;;;16.07;53.04
70909;BME280;58554;52.006;5.926;2023-06-05T07:25:46;101462.41;;;16.17;53.07
70909;BME280;58554;52.006;5.926;2023-06-05T07:28:13;101471.34;;;16.29;52.93
70909;BME280;58554;52.006;5.926;2023-06-05T07:30:39;101463.47;;;16.40;52.79
70909;BME280;58554;52.006;5.926;2023-06-05T07:33:06;101466.31;;;16.50;52.36
70909;BME280;58554;52.006;5.926;2023-06-05T07:35:32;101464.81;;;16.58;52.30
70909;BME280;58554;52.006;5.926;2023-06-05T07:37:59;101466.19;;;16.64;52.43
70909;BME280;58554;52.006;5.926;2023-06-05T07:40:28;101459.53;;;16.70;52.41
70909;BME280;58554;52.006;5.926;2023-06-05T07:42:55;101457.06;;;16.79;52.06
70909;BME280;58554;52.006;5.926;2023-06-05T07:45:21;101460.19;;;16.86;51.79
70909;BME280;58554;52.006;5.926;2023-06-05T07:47:48;101465.91;;;16.93;51.67
70909;BME280;58554;52.006;5.926;2023-06-05T07:50:14;101462.06;;;16.97;51.76
70909;BME280;58554;52.006;5.926;2023-06-05T07:52:41;101467.69;;;17.05;51.59
70909;BME280;58554;52.006;5.926;2023-06-05T07:55:08;101463.59;;;17.12;51.71
70909;BME280;58554;52.006;5.926;2023-06-05T07:57:37;101464.41;;;17.26;51.60
70909;BME280;58554;52.006;5.926;2023-06-05T08:00:05;101470.03;;;17.34;51.24
70909;BME280;58554;52.006;5.926;2023-06-05T08:02:35;101459.47;;;17.44;51.37
70909;BME280;58554;52.006;5.926;2023-06-05T08:05:02;101453.56;;;17.51;51.26
70909;BME280;58554;52.006;5.926;2023-06-05T08:07:28;101451.78;;;17.63;50.94
70909;BME280;58554;52.006;5.926;2023-06-05T08:09:55;101449.38;;;17.71;50.51
70909;BME280;58554;52.006;5.926;2023-06-05T08:12:21;101450.84;;;17.75;50.58
70909;BME280;58554;52.006;5.926;2023-06-05T08:14:51;101451.16;;;17.84;50.32
70909;BME280;58554;52.006;5.926;2023-06-05T08:17:17;101448.00;;;17.90;50.67
70909;BME280;58554;52.006;5.926;2023-06-05T08:19:44;101455.78;;;17.93;50.57
70909;BME280;58554;52.006;5.926;2023-06-05T08:22:10;101453.34;;;18.01;50.43
70909;BME280;58554;52.006;5.926;2023-06-05T08:24:37;101453.84;;;18.06;50.21
70909;BME280;58554;52.006;5.926;2023-06-05T08:27:04;101437.28;;;18.12;50.20
70909;BME280;58554;52.006;5.926;2023-06-05T08:29:30;101444.00;;;18.18;49.92
70909;BME280;58554;52.006;5.926;2023-06-05T08:32:00;101432.91;;;18.23;49.98
70909;BME280;58554;52.006;5.926;2023-06-05T08:34:26;101435.00;;;18.30;49.93
70909;BME280;58554;52.006;5.926;2023-06-05T08:36:53;101434.50;;;18.36;49.71
70909;BME280;58554;52.006;5.926;2023-06-05T08:39:19;101434.25;;;18.39;49.73
70909;BME280;58554;52.006;5.926;2023-06-05T08:41:49;101433.19;;;18.42;49.76
70909;BME280;58554;52.006;5.926;2023-06-05T08:44:18;101431.22;;;18.44;49.46
70909;BME280;58554;52.006;5.926;2023-06-05T08:46:45;101433.03;;;18.44;49.70
70909;BME280;58554;52.006;5.926;2023-06-05T08:49:17;101430.25;;;18.45;49.72
70909;BME280;58554;52.006;5.926;2023-06-05T08:51:49;101428.28;;;18.47;49.63
70909;BME280;58554;52.006;5.926;2023-06-05T08:54:17;101422.56;;;18.52;49.61
70909;BME280;58554;52.006;5.926;2023-06-05T08:56:46;101421.22;;;18.57;49.40
70909;BME280;58554;52.006;5.926;2023-06-05T08:59:13;101415.63;;;18.60;49.58
70909;BME280;58554;52.006;5.926;2023-06-05T09:01:40;101421.56;;;18.64;49.36
70909;BME280;58554;52.006;5.926;2023-06-05T09:04:07;101418.44;;;18.70;49.60
70909;BME280;58554;52.006;5.926;2023-06-05T09:06:36;101413.69;;;18.74;49.48
70909;BME280;58554;52.006;5.926;2023-06-05T09:09:02;101416.81;;;18.79;49.50
70909;BME280;58554;52.006;5.926;2023-06-05T09:11:30;101418.28;;;18.83;49.19
70909;BME280;58554;52.006;5.926;2023-06-05T09:13:59;101410.22;;;18.83;49.27
70909;BME280;58554;52.006;5.926;2023-06-05T09:16:34;101410.59;;;18.90;49.31
70909;BME280;58554;52.006;5.926;2023-06-05T09:19:02;101403.75;;;18.97;49.27
70909;BME280;58554;52.006;5.926;2023-06-05T09:21:28;101413.69;;;19.06;49.39
70909;BME280;58554;52.006;5.926;2023-06-05T09:24:15;101415.13;;;19.10;49.18
70909;BME280;58554;52.006;5.926;2023-06-05T09:26:48;101411.63;;;19.10;49.04
70909;BME280;58554;52.006;5.926;2023-06-05T09:29:22;101411.38;;;19.13;48.76
70909;BME280;58554;52.006;5.926;2023-06-05T09:31:50;101406.47;;;19.18;49.11
70909;BME280;58554;52.006;5.926;2023-06-05T09:34:22;101400.59;;;19.24;49.15
70909;BME280;58554;52.006;5.926;2023-06-05T09:36:50;101408.13;;;19.30;49.04
70909;BME280;58554;52.006;5.926;2023-06-05T09:39:19;101399.09;;;19.31;48.76
70909;BME280;58554;52.006;5.926;2023-06-05T09:41:47;101406.03;;;19.34;48.52
70909;BME280;58554;52.006;5.926;2023-06-05T09:44:15;101399.56;;;19.36;48.72
70909;BME280;58554;52.006;5.926;2023-06-05T09:46:50;101405.97;;;19.45;48.56
70909;BME280;58554;52.006;5.926;2023-06-05T09:49:18;101392.16;;;19.50;48.33
70909;BME280;58554;52.006;5.926;2023-06-05T09:51:46;101391.91;;;19.53;48.31
70909;BME280;58554;52.006;5.926;2023-06-05T09:54:13;101400.69;;;19.55;48.30
70909;BME280;58554;52.006;5.926;2023-06-05T09:56:46;101399.13;;;19.52;48.15
70909;BME280;58554;52.006;5.926;2023-06-05T09:59:18;101393.59;;;19.54;48.20
70909;BME280;58554;52.006;5.926;2023-06-05T10:01:47;101392.50;;;19.56;48.14
70909;BME280;58554;52.006;5.926;2023-06-05T10:04:20;101386.25;;;19.56;48.09
70909;BME280;58554;52.006;5.926;2023-06-05T10:06:49;101386.91;;;19.59;48.08
70909;BME280;58554;52.006;5.926;2023-06-05T10:09:17;101383.69;;;19.66;48.36
70909;BME280;58554;52.006;5.926;2023-06-05T10:11:48;101368.03;;;19.71;48.01
70909;BME280;58554;52.006;5.926;2023-06-05T10:14:15;101381.31;;;19.72;47.76
70909;BME280;58554;52.006;5.926;2023-06-05T10:16:43;101380.34;;;19.73;48.19
70909;BME280;58554;52.006;5.926;2023-06-05T10:19:16;101387.88;;;19.79;47.75
70909;BME280;58554;52.006;5.926;2023-06-05T10:21:43;101387.47;;;19.84;48.05
70909;BME280;58554;52.006;5.926;2023-06-05T10:24:15;101379.13;;;19.87;47.80
70909;BME280;58554;52.006;5.926;2023-06-05T10:27:10;101381.44;;;19.92;47.98
70909;BME280;58554;52.006;5.926;2023-06-05T10:30:06;101378.22;;;19.98;47.93
70909;BME280;58554;52.006;5.926;2023-06-05T10:33:21;101372.16;;;20.06;47.88
70909;BME280;58554;52.006;5.926;2023-06-05T10:36:05;101370.50;;;20.14;47.86
70909;BME280;58554;52.006;5.926;2023-06-05T10:38:43;101377.47;;;20.27;47.76
70909;BME280;58554;52.006;5.926;2023-06-05T10:41:10;101376.50;;;20.37;47.36
70909;BME280;58554;52.006;5.926;2023-06-05T10:43:49;101373.03;;;20.47;47.44
70909;BME280;58554;52.006;5.926;2023-06-05T10:46:36;101367.81;;;20.55;47.07
70909;BME280;58554;52.006;5.926;2023-06-05T10:49:07;101362.16;;;20.58;47.13
70909;BME280;58554;52.006;5.926;2023-06-05T10:51:39;101370.66;;;20.63;47.16
70909;BME280;58554;52.006;5.926;2023-06-05T10:54:07;101358.78;;;20.66;47.24
70909;BME280;58554;52.006;5.926;2023-06-05T10:56:54;101359.91;;;20.73;47.12
70909;BME280;58554;52.006;5.926;2023-06-05T10:59:26;101362.03;;;20.79;47.47
70909;BME280;58554;52.006;5.926;2023-06-05T11:05:04;101355.72;;;20.90;46.82
70909;BME280;58554;52.006;5.926;2023-06-05T11:07:32;101352.84;;;20.91;46.68
70909;BME280;58554;52.006;5.926;2023-06-05T11:10:12;101356.81;;;20.97;46.38
70909;BME280;58554;52.006;5.926;2023-06-05T11:12:57;101359.78;;;21.03;46.00
70909;BME280;58554;52.006;5.926;2023-06-05T11:15:41;101350.03;;;21.12;46.14
70909;BME280;58554;52.006;5.926;2023-06-05T11:18:26;101356.69;;;21.18;46.17
70909;BME280;58554;52.006;5.926;2023-06-05T11:20:55;101345.38;;;21.24;46.35
70909;BME280;58554;52.006;5.926;2023-06-05T11:23:23;101361.66;;;21.32;45.98
70909;BME280;58554;52.006;5.926;2023-06-05T11:25:49;101357.38;;;21.39;45.54
70909;BME280;58554;52.006;5.926;2023-06-05T11:28:37;101347.19;;;21.43;45.35
70909;BME280;58554;52.006;5.926;2023-06-05T11:31:07;101340.66;;;21.46;45.31
70909;BME280;58554;52.006;5.926;2023-06-05T11:33:35;101341.22;;;21.49;45.29
70909;BME280;58554;52.006;5.926;2023-06-05T11:36:05;101340.63;;;21.55;45.00
70909;BME280;58554;52.006;5.926;2023-06-05T11:38:33;101342.88;;;21.60;44.99
70909;BME280;58554;52.006;5.926;2023-06-05T11:41:00;101331.69;;;21.64;44.53
70909;BME280;58554;52.006;5.926;2023-06-05T11:43:31;101332.94;;;21.70;44.85
70909;BME280;58554;52.006;5.926;2023-06-05T11:45:58;101334.91;;;21.78;44.89
70909;BME280;58554;52.006;5.926;2023-06-05T11:48:29;101325.09;;;21.87;44.61
70909;BME280;58554;52.006;5.926;2023-06-05T11:50:58;101320.81;;;21.94;44.76
70909;BME280;58554;52.006;5.926;2023-06-05T11:53:26;101330.13;;;21.99;44.26
70909;BME280;58554;52.006;5.926;2023-06-05T11:55:55;101330.28;;;22.08;44.14
70909;BME280;58554;52.006;5.926;2023-06-05T11:58:23;101329.66;;;22.14;44.19
70909;BME280;58554;52.006;5.926;2023-06-05T12:00:51;101323.13;;;22.16;44.15
70909;BME280;58554;52.006;5.926;2023-06-05T12:03:18;101323.41;;;22.23;43.82
70909;BME280;58554;52.006;5.926;2023-06-05T12:05:48;101334.25;;;22.31;43.91
70909;BME280;58554;52.006;5.926;2023-06-05T12:08:21;101326.09;;;22.41;43.47
70909;BME280;58554;52.006;5.926;2023-06-05T12:10:48;101324.50;;;22.48;43.46
70909;BME280;58554;52.006;5.926;2023-06-05T12:13:15;101329.13;;;22.56;43.23
70909;BME280;58554;52.006;5.926;2023-06-05T12:15:42;101320.75;;;22.59;42.88
70909;BME280;58554;52.006;5.926;2023-06-05T12:18:08;101319.25;;;22.64;43.04
70909;BME280;58554;52.006;5.926;2023-06-05T12:20:38;101319.53;;;22.71;42.69
70909;BME280;58554;52.006;5.926;2023-06-05T12:23:07;101326.84;;;22.79;42.69
70909;BME280;58554;52.006;5.926;2023-06-05T12:25:43;101317.31;;;22.84;42.48
70909;BME280;58554;52.006;5.926;2023-06-05T12:28:18;101320.06;;;22.93;42.06
70909;BME280;58554;52.006;5.926;2023-06-05T12:30:45;101311.22;;;23.00;41.96
70909;BME280;58554;52.006;5.926;2023-06-05T12:33:11;101302.84;;;23.12;42.26
70909;BME280;58554;52.006;5.926;2023-06-05T12:35:38;101304.28;;;23.24;42.24
70909;BME280;58554;52.006;5.926;2023-06-05T12:38:07;101298.28;;;23.30;41.99
70909;BME280;58554;52.006;5.926;2023-06-05T12:40:33;101298.16;;;23.40;41.47
70909;BME280;58554;52.006;5.926;2023-06-05T12:43:00;101305.63;;;23.46;41.22
70909;BME280;58554;52.006;5.926;2023-06-05T12:45:26;101305.19;;;23.51;41.07
70909;BME280;58554;52.006;5.926;2023-06-05T12:47:53;101293.22;;;23.53;40.95
70909;BME280;58554;52.006;5.926;2023-06-05T12:50:19;101289.72;;;23.61;41.01
70909;BME280;58554;52.006;5.926;2023-06-05T12:52:46;101280.34;;;23.73;40.98
70909;BME280;58554;52.006;5.926;2023-06-05T12:55:16;101278.00;;;23.87;40.84
70909;BME280;58554;52.006;5.926;2023-06-05T12:57:42;101283.97;;;23.98;40.36
70909;BME280;58554;52.006;5.926;2023-06-05T13:00:10;101280.44;;;24.06;40.37